sensor_id;sensor_type;location;lat;lon;timestamp;P1;durP1;ratioP1;P2;durP2;ratioP2
41572;SDS011;27286;47.870;19.006;2022-09-09T00:00:23;0.08;;;0.00;;
41572;SDS011;27286;47.870;19.006;2022-09-09T00:02:54;0.10;;;0.10;;
41572;SDS011;27286;47.870;19.006;2022-09-09T00:05:37;0.10;;;0.00;;
41572;SDS011;27286;47.870;19.006;2022-09-09T00:08:15;0.20;;;0.10;;
41572;SDS011;27286;47.870;19.006;2022-09-09T00:13:22;0.10;;;0.10;;
41572;SDS011;27286;47.870;19.006;2022-09-09T00:21:31;0.03;;;0.00;;
41572;SDS011;27286;47.870;19.006;2022-09-09T00:23:59;0.45;;;0.10;;
41572;SDS011;27286;47.870;19.006;2022-09-09T00:26:35;0.75;;;0.10;;
41572;SDS011;27286;47.870;19.006;2022-09-09T00:31:37;0.52;;;0.10;;
41572;SDS011;27286;47.870;19.006;2022-09-09T00:34:07;0.50;;;0.10;;
41572;SDS011;27286;47.870;19.006;2022-09-09T00:36:37;0.20;;;0.10;;
41572;SDS011;27286;47.870;19.006;2022-09-09T00:39:04;0.40;;;0.10;;
41572;SDS011;27286;47.870;19.006;2022-09-09T00:57:57;1.05;;;0.10;;
41572;SDS011;27286;47.870;19.006;2022-09-09T01:00:27;0.80;;;0.10;;
41572;SDS011;27286;47.870;19.006;2022-09-09T01:16:28;0.50;;;0.20;;
41572;SDS011;27286;47.870;19.006;2022-09-09T01:18:56;0.20;;;0.10;;
41572;SDS011;27286;47.870;19.006;2022-09-09T01:24:16;1.27;;;0.10;;
41572;SDS011;27286;47.870;19.006;2022-09-09T01:26:52;0.13;;;0.10;;
41572;SDS011;27286;47.870;19.006;2022-09-09T01:29:21;0.20;;;0.00;;
41572;SDS011;27286;47.870;19.006;2022-09-09T01:31:55;0.20;;;0.10;;
41572;SDS011;27286;47.870;19.006;2022-09-09T01:34:23;0.20;;;0.10;;
41572;SDS011;27286;47.870;19.006;2022-09-09T01:36:56;0.47;;;0.10;;
41572;SDS011;27286;47.870;19.006;2022-09-09T01:39:25;0.25;;;0.10;;
41572;SDS011;27286;47.870;19.006;2022-09-09T01:41:52;0.75;;;0.20;;
41572;SDS011;27286;47.870;19.006;2022-09-09T01:51:59;3.53;;;0.10;;
41572;SDS011;27286;47.870;19.006;2022-09-09T02:08:33;0.13;;;0.05;;
41572;SDS011;27286;47.870;19.006;2022-09-09T02:11:14;1.35;;;0.10;;
41572;SDS011;27286;47.870;19.006;2022-09-09T02:13:41;0.10;;;0.00;;
41572;SDS011;27286;47.870;19.006;2022-09-09T02:16:25;4.32;;;0.10;;
41572;SDS011;27286;47.870;19.006;2022-09-09T02:19:03;0.73;;;0.03;;
41572;SDS011;27286;47.870;19.006;2022-09-09T02:21:34;0.40;;;0.20;;
41572;SDS011;27286;47.870;19.006;2022-09-09T02:24:02;0.10;;;0.10;;
41572;SDS011;27286;47.870;19.006;2022-09-09T02:26:31;0.20;;;0.10;;
41572;SDS011;27286;47.870;19.006;2022-09-09T02:28:59;0.08;;;0.00;;
41572;SDS011;27286;47.870;19.006;2022-09-09T02:31:27;0.30;;;0.10;;
41572;SDS011;27286;47.870;19.006;2022-09-09T02:33:55;0.10;;;0.00;;
41572;SDS011;27286;47.870;19.006;2022-09-09T02:36:25;0.20;;;0.10;;
41572;SDS011;27286;47.870;19.006;2022-09-09T02:38:54;1.48;;;0.10;;
41572;SDS011;27286;47.870;19.006;2022-09-09T02:41:23;0.20;;;0.10;;
41572;SDS011;27286;47.870;19.006;2022-09-09T02:43:53;0.30;;;0.10;;
41572;SDS011;27286;47.870;19.006;2022-09-09T02:49:10;0.10;;;0.10;;
41572;SDS011;27286;47.870;19.006;2022-09-09T02:56:56;1.05;;;0.55;;
41572;SDS011;27286;47.870;19.006;2022-09-09T02:59:28;0.08;;;0.00;;
41572;SDS011;27286;47.870;19.006;2022-09-09T03:01:55;1.52;;;0.10;;
41572;SDS011;27286;47.870;19.006;2022-09-09T03:04:21;0.20;;;0.10;;
41572;SDS011;27286;47.870;19.006;2022-09-09T03:06:46;0.38;;;0.10;;
41572;SDS011;27286;47.870;19.006;2022-09-09T03:09:11;0.13;;;0.10;;
41572;SDS011;27286;47.870;19.006;2022-09-09T03:11:37;0.22;;;0.00;;
41572;SDS011;27286;47.870;19.006;2022-09-09T03:14:03;0.20;;;0.10;;
41572;SDS011;27286;47.870;19.006;2022-09-09T03:16:29;0.88;;;0.10;;
41572;SDS011;27286;47.870;19.006;2022-09-09T03:18:55;0.13;;;0.03;;
41572;SDS011;27286;47.870;19.006;2022-09-09T03:21:20;0.80;;;0.13;;
41572;SDS011;27286;47.870;19.006;2022-09-09T03:23:46;0.20;;;0.10;;
41572;SDS011;27286;47.870;19.006;2022-09-09T03:26:11;0.20;;;0.00;;
41572;SDS011;27286;47.870;19.006;2022-09-09T03:28:37;1.02;;;0.17;;
41572;SDS011;27286;47.870;19.006;2022-09-09T03:31:03;0.43;;;0.10;;
41572;SDS011;27286;47.870;19.006;2022-09-09T03:33:30;0.30;;;0.10;;
41572;SDS011;27286;47.870;19.006;2022-09-09T03:35:56;1.55;;;0.10;;
41572;SDS011;27286;47.870;19.006;2022-09-09T03:38:23;0.15;;;0.10;;
41572;SDS011;27286;47.870;19.006;2022-09-09T03:40:52;0.38;;;0.10;;
41572;SDS011;27286;47.870;19.006;2022-09-09T03:43:20;3.03;;;0.10;;
41572;SDS011;27286;47.870;19.006;2022-09-09T03:45:46;0.57;;;0.10;;
41572;SDS011;27286;47.870;19.006;2022-09-09T03:48:13;0.28;;;0.13;;
41572;SDS011;27286;47.870;19.006;2022-09-09T03:50:43;0.20;;;0.10;;
41572;SDS011;27286;47.870;19.006;2022-09-09T03:53:10;1.33;;;0.10;;
41572;SDS011;27286;47.870;19.006;2022-09-09T03:55:35;2.25;;;0.10;;
41572;SDS011;27286;47.870;19.006;2022-09-09T03:58:01;1.17;;;0.10;;
41572;SDS011;27286;47.870;19.006;2022-09-09T04:00:26;0.40;;;0.10;;
41572;SDS011;27286;47.870;19.006;2022-09-09T04:02:51;2.30;;;0.10;;
41572;SDS011;27286;47.870;19.006;2022-09-09T04:05:19;1.17;;;0.20;;
41572;SDS011;27286;47.870;19.006;2022-09-09T04:07:44;0.40;;;0.10;;
41572;SDS011;27286;47.870;19.006;2022-09-09T04:10:10;0.35;;;0.10;;
41572;SDS011;27286;47.870;19.006;2022-09-09T04:12:35;0.20;;;0.10;;
41572;SDS011;27286;47.870;19.006;2022-09-09T04:15:01;0.20;;;0.10;;
41572;SDS011;27286;47.870;19.006;2022-09-09T04:17:27;0.30;;;0.10;;
41572;SDS011;27286;47.870;19.006;2022-09-09T04:19:52;1.65;;;0.10;;
41572;SDS011;27286;47.870;19.006;2022-09-09T04:22:18;0.25;;;0.10;;
41572;SDS011;27286;47.870;19.006;2022-09-09T04:24:43;0.43;;;0.10;;
41572;SDS011;27286;47.870;19.006;2022-09-09T04:27:08;0.63;;;0.10;;
41572;SDS011;27286;47.870;19.006;2022-09-09T04:29:34;0.28;;;0.10;;
41572;SDS011;27286;47.870;19.006;2022-09-09T04:31:59;0.25;;;0.10;;
41572;SDS011;27286;47.870;19.006;2022-09-09T04:34:25;0.30;;;0.10;;
41572;SDS011;27286;47.870;19.006;2022-09-09T04:36:51;0.10;;;0.10;;
41572;SDS011;27286;47.870;19.006;2022-09-09T04:39:17;0.40;;;0.10;;
41572;SDS011;27286;47.870;19.006;2022-09-09T04:41:42;0.20;;;0.10;;
41572;SDS011;27286;47.870;19.006;2022-09-09T04:44:07;0.20;;;0.10;;
41572;SDS011;27286;47.870;19.006;2022-09-09T04:46:33;0.30;;;0.10;;
41572;SDS011;27286;47.870;19.006;2022-09-09T04:48:59;0.50;;;0.28;;
41572;SDS011;27286;47.870;19.006;2022-09-09T04:51:25;0.40;;;0.10;;
41572;SDS011;27286;47.870;19.006;2022-09-09T04:53:50;0.60;;;0.20;;
41572;SDS011;27286;47.870;19.006;2022-09-09T04:56:17;1.02;;;0.35;;
41572;SDS011;27286;47.870;19.006;2022-09-09T04:58:43;4.32;;;0.60;;
41572;SDS011;27286;47.870;19.006;2022-09-09T05:01:10;0.63;;;0.20;;
41572;SDS011;27286;47.870;19.006;2022-09-09T05:03:40;0.40;;;0.20;;
41572;SDS011;27286;47.870;19.006;2022-09-09T05:06:12;0.47;;;0.15;;
41572;SDS011;27286;47.870;19.006;2022-09-09T05:08:40;0.67;;;0.20;;
41572;SDS011;27286;47.870;19.006;2022-09-09T05:11:15;0.28;;;0.20;;
41572;SDS011;27286;47.870;19.006;2022-09-09T05:13:41;3.33;;;0.25;;
41572;SDS011;27286;47.870;19.006;2022-09-09T05:16:06;0.20;;;0.10;;
41572;SDS011;27286;47.870;19.006;2022-09-09T05:18:32;0.32;;;0.10;;
41572;SDS011;27286;47.870;19.006;2022-09-09T05:21:00;0.70;;;0.10;;
41572;SDS011;27286;47.870;19.006;2022-09-09T05:23:25;1.27;;;0.10;;
41572;SDS011;27286;47.870;19.006;2022-09-09T05:25:55;0.75;;;0.28;;
41572;SDS011;27286;47.870;19.006;2022-09-09T05:28:22;0.50;;;0.10;;
41572;SDS011;27286;47.870;19.006;2022-09-09T05:30:59;0.40;;;0.35;;
41572;SDS011;27286;47.870;19.006;2022-09-09T05:33:29;1.67;;;0.32;;
41572;SDS011;27286;47.870;19.006;2022-09-09T05:35:59;1.58;;;0.10;;
41572;SDS011;27286;47.870;19.006;2022-09-09T05:38:27;0.25;;;0.10;;
41572;SDS011;27286;47.870;19.006;2022-09-09T05:40:54;0.85;;;0.30;;
41572;SDS011;27286;47.870;19.006;2022-09-09T05:43:21;0.17;;;0.10;;
41572;SDS011;27286;47.870;19.006;2022-09-09T05:45:47;0.55;;;0.15;;
41572;SDS011;27286;47.870;19.006;2022-09-09T05:48:17;3.05;;;0.20;;
41572;SDS011;27286;47.870;19.006;2022-09-09T05:50:43;0.38;;;0.20;;
41572;SDS011;27286;47.870;19.006;2022-09-09T05:53:10;0.52;;;0.10;;
41572;SDS011;27286;47.870;19.006;2022-09-09T05:55:35;0.25;;;0.10;;
41572;SDS011;27286;47.870;19.006;2022-09-09T05:58:02;0.40;;;0.20;;
41572;SDS011;27286;47.870;19.006;2022-09-09T06:00:28;0.32;;;0.20;;
41572;SDS011;27286;47.870;19.006;2022-09-09T06:02:54;0.20;;;0.10;;
41572;SDS011;27286;47.870;19.006;2022-09-09T06:05:19;0.68;;;0.20;;
41572;SDS011;27286;47.870;19.006;2022-09-09T06:07:45;0.38;;;0.20;;
41572;SDS011;27286;47.870;19.006;2022-09-09T06:10:11;0.50;;;0.20;;
41572;SDS011;27286;47.870;19.006;2022-09-09T06:12:39;0.25;;;0.10;;
41572;SDS011;27286;47.870;19.006;2022-09-09T06:15:04;0.57;;;0.10;;
41572;SDS011;27286;47.870;19.006;2022-09-09T06:17:30;0.75;;;0.22;;
41572;SDS011;27286;47.870;19.006;2022-09-09T06:19:56;0.32;;;0.20;;
41572;SDS011;27286;47.870;19.006;2022-09-09T06:22:22;0.40;;;0.20;;
41572;SDS011;27286;47.870;19.006;2022-09-09T06:24:47;0.40;;;0.20;;
41572;SDS011;27286;47.870;19.006;2022-09-09T06:27:12;0.40;;;0.20;;
41572;SDS011;27286;47.870;19.006;2022-09-09T06:29:38;0.30;;;0.10;;
41572;SDS011;27286;47.870;19.006;2022-09-09T06:32:04;0.38;;;0.10;;
41572;SDS011;27286;47.870;19.006;2022-09-09T06:34:29;0.22;;;0.10;;
41572;SDS011;27286;47.870;19.006;2022-09-09T06:36:55;3.20;;;0.20;;
41572;SDS011;27286;47.870;19.006;2022-09-09T06:39:22;0.40;;;0.20;;
41572;SDS011;27286;47.870;19.006;2022-09-09T06:41:48;0.30;;;0.10;;
41572;SDS011;27286;47.870;19.006;2022-09-09T06:44:14;0.77;;;0.20;;
41572;SDS011;27286;47.870;19.006;2022-09-09T06:46:40;0.68;;;0.20;;
41572;SDS011;27286;47.870;19.006;2022-09-09T06:49:06;1.08;;;0.28;;
41572;SDS011;27286;47.870;19.006;2022-09-09T06:51:34;0.40;;;0.20;;
41572;SDS011;27286;47.870;19.006;2022-09-09T06:54:01;0.70;;;0.20;;
41572;SDS011;27286;47.870;19.006;2022-09-09T06:56:32;0.47;;;0.20;;
41572;SDS011;27286;47.870;19.006;2022-09-09T06:59:00;0.50;;;0.28;;
41572;SDS011;27286;47.870;19.006;2022-09-09T07:01:33;0.77;;;0.20;;
41572;SDS011;27286;47.870;19.006;2022-09-09T07:04:01;0.35;;;0.20;;
41572;SDS011;27286;47.870;19.006;2022-09-09T07:06:32;0.57;;;0.20;;
41572;SDS011;27286;47.870;19.006;2022-09-09T07:09:11;0.80;;;0.20;;
41572;SDS011;27286;47.870;19.006;2022-09-09T07:11:47;0.60;;;0.20;;
41572;SDS011;27286;47.870;19.006;2022-09-09T07:14:15;0.28;;;0.20;;
41572;SDS011;27286;47.870;19.006;2022-09-09T07:16:41;0.70;;;0.20;;
41572;SDS011;27286;47.870;19.006;2022-09-09T07:19:07;0.45;;;0.20;;
41572;SDS011;27286;47.870;19.006;2022-09-09T07:21:33;0.65;;;0.20;;
41572;SDS011;27286;47.870;19.006;2022-09-09T07:23:59;0.50;;;0.20;;
41572;SDS011;27286;47.870;19.006;2022-09-09T07:26:27;0.55;;;0.35;;
41572;SDS011;27286;47.870;19.006;2022-09-09T07:28:54;1.00;;;0.20;;
41572;SDS011;27286;47.870;19.006;2022-09-09T07:31:22;0.45;;;0.10;;
41572;SDS011;27286;47.870;19.006;2022-09-09T07:33:50;0.68;;;0.15;;
41572;SDS011;27286;47.870;19.006;2022-09-09T07:36:19;0.30;;;0.10;;
41572;SDS011;27286;47.870;19.006;2022-09-09T07:41:22;0.10;;;0.10;;
41572;SDS011;27286;47.870;19.006;2022-09-09T07:46:22;0.55;;;0.15;;
41572;SDS011;27286;47.870;19.006;2022-09-09T07:48:50;0.45;;;0.17;;
41572;SDS011;27286;47.870;19.006;2022-09-09T07:51:18;0.60;;;0.20;;
41572;SDS011;27286;47.870;19.006;2022-09-09T07:53:54;0.35;;;0.13;;
41572;SDS011;27286;47.870;19.006;2022-09-09T07:56:25;0.57;;;0.20;;
41572;SDS011;27286;47.870;19.006;2022-09-09T07:58:52;0.50;;;0.20;;
41572;SDS011;27286;47.870;19.006;2022-09-09T08:01:26;0.65;;;0.25;;
41572;SDS011;27286;47.870;19.006;2022-09-09T08:03:57;0.38;;;0.20;;
41572;SDS011;27286;47.870;19.006;2022-09-09T08:06:28;0.32;;;0.17;;
41572;SDS011;27286;47.870;19.006;2022-09-09T08:08:56;0.80;;;0.20;;
41572;SDS011;27286;47.870;19.006;2022-09-09T08:11:22;1.17;;;0.20;;
41572;SDS011;27286;47.870;19.006;2022-09-09T08:13:50;1.05;;;0.20;;
41572;SDS011;27286;47.870;19.006;2022-09-09T08:16:18;0.28;;;0.10;;
41572;SDS011;27286;47.870;19.006;2022-09-09T08:18:47;0.60;;;0.20;;
41572;SDS011;27286;47.870;19.006;2022-09-09T08:21:23;0.40;;;0.20;;
41572;SDS011;27286;47.870;19.006;2022-09-09T08:23:52;1.00;;;0.20;;
41572;SDS011;27286;47.870;19.006;2022-09-09T08:26:21;0.65;;;0.20;;
41572;SDS011;27286;47.870;19.006;2022-09-09T08:28:49;2.05;;;0.20;;
41572;SDS011;27286;47.870;19.006;2022-09-09T08:31:22;0.45;;;0.15;;
41572;SDS011;27286;47.870;19.006;2022-09-09T08:33:55;0.40;;;0.15;;
41572;SDS011;27286;47.870;19.006;2022-09-09T08:36:24;0.52;;;0.20;;
41572;SDS011;27286;47.870;19.006;2022-09-09T08:38:52;0.85;;;0.17;;
41572;SDS011;27286;47.870;19.006;2022-09-09T08:44:28;0.20;;;0.13;;
41572;SDS011;27286;47.870;19.006;2022-09-09T08:50:01;0.55;;;0.20;;
41572;SDS011;27286;47.870;19.006;2022-09-09T08:55:41;0.95;;;0.20;;
41572;SDS011;27286;47.870;19.006;2022-09-09T08:58:17;0.45;;;0.20;;
41572;SDS011;27286;47.870;19.006;2022-09-09T09:11:11;0.32;;;0.10;;
41572;SDS011;27286;47.870;19.006;2022-09-09T09:16:33;0.80;;;0.40;;
41572;SDS011;27286;47.870;19.006;2022-09-09T09:19:16;0.22;;;0.10;;
41572;SDS011;27286;47.870;19.006;2022-09-09T09:21:44;0.30;;;0.20;;
41572;SDS011;27286;47.870;19.006;2022-09-09T09:24:18;0.50;;;0.20;;
41572;SDS011;27286;47.870;19.006;2022-09-09T09:26:52;0.43;;;0.10;;
41572;SDS011;27286;47.870;19.006;2022-09-09T09:29:18;0.40;;;0.10;;
41572;SDS011;27286;47.870;19.006;2022-09-09T09:31:53;0.68;;;0.28;;
41572;SDS011;27286;47.870;19.006;2022-09-09T09:34:22;0.20;;;0.10;;
41572;SDS011;27286;47.870;19.006;2022-09-09T09:36:58;0.43;;;0.20;;
41572;SDS011;27286;47.870;19.006;2022-09-09T09:41:52;0.40;;;0.10;;
41572;SDS011;27286;47.870;19.006;2022-09-09T09:44:31;0.95;;;0.20;;
41572;SDS011;27286;47.870;19.006;2022-09-09T09:49:52;1.17;;;0.20;;
41572;SDS011;27286;47.870;19.006;2022-09-09T09:52:24;0.30;;;0.17;;
41572;SDS011;27286;47.870;19.006;2022-09-09T09:54:52;0.52;;;0.20;;
41572;SDS011;27286;47.870;19.006;2022-09-09T09:57:18;0.45;;;0.20;;
41572;SDS011;27286;47.870;19.006;2022-09-09T10:00:04;0.98;;;0.10;;
41572;SDS011;27286;47.870;19.006;2022-09-09T10:02:40;0.60;;;0.10;;
41572;SDS011;27286;47.870;19.006;2022-09-09T10:05:18;0.40;;;0.10;;
41572;SDS011;27286;47.870;19.006;2022-09-09T10:07:44;0.57;;;0.10;;
41572;SDS011;27286;47.870;19.006;2022-09-09T10:10:15;0.30;;;0.10;;
41572;SDS011;27286;47.870;19.006;2022-09-09T10:26:32;1.20;;;0.17;;
41572;SDS011;27286;47.870;19.006;2022-09-09T10:32:06;0.15;;;0.10;;
41572;SDS011;27286;47.870;19.006;2022-09-09T10:37:41;0.20;;;0.10;;
41572;SDS011;27286;47.870;19.006;2022-09-09T10:57:06;0.28;;;0.10;;
41572;SDS011;27286;47.870;19.006;2022-09-09T10:59:40;0.52;;;0.10;;
41572;SDS011;27286;47.870;19.006;2022-09-09T11:05:10;0.40;;;0.10;;
41572;SDS011;27286;47.870;19.006;2022-09-09T11:07:52;0.32;;;0.10;;
41572;SDS011;27286;47.870;19.006;2022-09-09T11:13:15;0.20;;;0.10;;
41572;SDS011;27286;47.870;19.006;2022-09-09T11:24:56;0.30;;;0.10;;
41572;SDS011;27286;47.870;19.006;2022-09-09T11:27:26;0.10;;;0.10;;
41572;SDS011;27286;47.870;19.006;2022-09-09T11:40:39;0.15;;;0.10;;
41572;SDS011;27286;47.870;19.006;2022-09-09T11:43:09;1.33;;;0.10;;
41572;SDS011;27286;47.870;19.006;2022-09-09T11:45:38;0.43;;;0.10;;
41572;SDS011;27286;47.870;19.006;2022-09-09T11:48:28;0.22;;;0.10;;
41572;SDS011;27286;47.870;19.006;2022-09-09T11:51:02;0.55;;;0.20;;
41572;SDS011;27286;47.870;19.006;2022-09-09T11:53:30;0.13;;;0.03;;
41572;SDS011;27286;47.870;19.006;2022-09-09T11:56:00;0.57;;;0.30;;
41572;SDS011;27286;47.870;19.006;2022-09-09T11:58:30;0.10;;;0.10;;
41572;SDS011;27286;47.870;19.006;2022-09-09T12:01:16;0.15;;;0.10;;
41572;SDS011;27286;47.870;19.006;2022-09-09T12:06:41;0.38;;;0.10;;
41572;SDS011;27286;47.870;19.006;2022-09-09T12:09:31;0.20;;;0.10;;
41572;SDS011;27286;47.870;19.006;2022-09-09T12:14:55;0.38;;;0.10;;
41572;SDS011;27286;47.870;19.006;2022-09-09T12:17:25;0.40;;;0.20;;
41572;SDS011;27286;47.870;19.006;2022-09-09T12:33:42;0.55;;;0.20;;
41572;SDS011;27286;47.870;19.006;2022-09-09T12:36:12;1.30;;;0.30;;
41572;SDS011;27286;47.870;19.006;2022-09-09T12:38:53;0.40;;;0.20;;
41572;SDS011;27286;47.870;19.006;2022-09-09T12:41:27;2.20;;;0.20;;
41572;SDS011;27286;47.870;19.006;2022-09-09T12:44:03;0.68;;;0.20;;
41572;SDS011;27286;47.870;19.006;2022-09-09T12:46:40;0.20;;;0.10;;
41572;SDS011;27286;47.870;19.006;2022-09-09T12:52:23;0.20;;;0.10;;
41572;SDS011;27286;47.870;19.006;2022-09-09T12:54:57;0.30;;;0.20;;
41572;SDS011;27286;47.870;19.006;2022-09-09T12:57:25;0.22;;;0.10;;
41572;SDS011;27286;47.870;19.006;2022-09-09T13:00:03;0.85;;;0.20;;
41572;SDS011;27286;47.870;19.006;2022-09-09T13:02:30;0.25;;;0.10;;
41572;SDS011;27286;47.870;19.006;2022-09-09T13:05:05;2.35;;;0.10;;
41572;SDS011;27286;47.870;19.006;2022-09-09T13:07:32;0.30;;;0.17;;
41572;SDS011;27286;47.870;19.006;2022-09-09T13:09:57;0.28;;;0.10;;
41572;SDS011;27286;47.870;19.006;2022-09-09T13:12:22;0.30;;;0.20;;
41572;SDS011;27286;47.870;19.006;2022-09-09T13:14:49;0.28;;;0.20;;
41572;SDS011;27286;47.870;19.006;2022-09-09T13:17:19;0.10;;;0.10;;
41572;SDS011;27286;47.870;19.006;2022-09-09T13:19:47;0.30;;;0.13;;
41572;SDS011;27286;47.870;19.006;2022-09-09T13:27:40;0.20;;;0.17;;
41572;SDS011;27286;47.870;19.006;2022-09-09T13:33:02;0.73;;;0.20;;
41572;SDS011;27286;47.870;19.006;2022-09-09T13:35:30;0.47;;;0.20;;
41572;SDS011;27286;47.870;19.006;2022-09-09T13:37:56;0.17;;;0.10;;
41572;SDS011;27286;47.870;19.006;2022-09-09T13:40:23;0.38;;;0.10;;
41572;SDS011;27286;47.870;19.006;2022-09-09T13:42:52;1.55;;;0.10;;
41572;SDS011;27286;47.870;19.006;2022-09-09T13:45:21;0.50;;;0.10;;
41572;SDS011;27286;47.870;19.006;2022-09-09T13:47:49;0.43;;;0.20;;
41572;SDS011;27286;47.870;19.006;2022-09-09T13:50:29;0.10;;;0.10;;
41572;SDS011;27286;47.870;19.006;2022-09-09T13:52:56;0.20;;;0.10;;
41572;SDS011;27286;47.870;19.006;2022-09-09T13:55:26;0.65;;;0.20;;
41572;SDS011;27286;47.870;19.006;2022-09-09T13:57:57;0.30;;;0.10;;
41572;SDS011;27286;47.870;19.006;2022-09-09T14:00:25;0.20;;;0.20;;
41572;SDS011;27286;47.870;19.006;2022-09-09T14:02:50;0.17;;;0.10;;
41572;SDS011;27286;47.870;19.006;2022-09-09T14:05:17;0.32;;;0.20;;
41572;SDS011;27286;47.870;19.006;2022-09-09T14:07:43;0.93;;;0.17;;
41572;SDS011;27286;47.870;19.006;2022-09-09T14:10:09;0.40;;;0.10;;
41572;SDS011;27286;47.870;19.006;2022-09-09T14:12:35;0.43;;;0.20;;
41572;SDS011;27286;47.870;19.006;2022-09-09T14:15:02;1.10;;;0.20;;
41572;SDS011;27286;47.870;19.006;2022-09-09T14:17:28;0.95;;;0.20;;
41572;SDS011;27286;47.870;19.006;2022-09-09T14:19:55;0.80;;;0.15;;
41572;SDS011;27286;47.870;19.006;2022-09-09T14:22:21;1.20;;;0.20;;
41572;SDS011;27286;47.870;19.006;2022-09-09T14:24:46;0.63;;;0.20;;
41572;SDS011;27286;47.870;19.006;2022-09-09T14:27:12;0.65;;;0.10;;
41572;SDS011;27286;47.870;19.006;2022-09-09T14:29:37;1.80;;;0.10;;
41572;SDS011;27286;47.870;19.006;2022-09-09T14:32:03;0.57;;;0.10;;
41572;SDS011;27286;47.870;19.006;2022-09-09T14:34:28;0.40;;;0.20;;
41572;SDS011;27286;47.870;19.006;2022-09-09T14:36:54;0.40;;;0.10;;
41572;SDS011;27286;47.870;19.006;2022-09-09T14:39:19;0.43;;;0.10;;
41572;SDS011;27286;47.870;19.006;2022-09-09T14:41:46;0.20;;;0.10;;
41572;SDS011;27286;47.870;19.006;2022-09-09T14:44:11;0.20;;;0.10;;
41572;SDS011;27286;47.870;19.006;2022-09-09T14:46:37;0.10;;;0.10;;
41572;SDS011;27286;47.870;19.006;2022-09-09T14:49:03;0.52;;;0.10;;
41572;SDS011;27286;47.870;19.006;2022-09-09T14:51:29;0.30;;;0.20;;
41572;SDS011;27286;47.870;19.006;2022-09-09T14:53:55;0.82;;;0.13;;
41572;SDS011;27286;47.870;19.006;2022-09-09T14:56:24;0.32;;;0.10;;
41572;SDS011;27286;47.870;19.006;2022-09-09T14:58:53;0.77;;;0.10;;
41572;SDS011;27286;47.870;19.006;2022-09-09T15:01:19;3.00;;;0.28;;
41572;SDS011;27286;47.870;19.006;2022-09-09T15:03:49;0.68;;;0.10;;
41572;SDS011;27286;47.870;19.006;2022-09-09T15:06:19;0.90;;;0.10;;
41572;SDS011;27286;47.870;19.006;2022-09-09T15:08:46;0.10;;;0.10;;
41572;SDS011;27286;47.870;19.006;2022-09-09T15:11:13;1.67;;;0.20;;
41572;SDS011;27286;47.870;19.006;2022-09-09T15:13:40;0.73;;;0.13;;
41572;SDS011;27286;47.870;19.006;2022-09-09T15:16:08;0.70;;;0.20;;
41572;SDS011;27286;47.870;19.006;2022-09-09T15:18:35;0.10;;;0.10;;
41572;SDS011;27286;47.870;19.006;2022-09-09T15:21:02;0.43;;;0.10;;
41572;SDS011;27286;47.870;19.006;2022-09-09T15:23:33;0.70;;;0.10;;
41572;SDS011;27286;47.870;19.006;2022-09-09T15:25:59;0.25;;;0.10;;
41572;SDS011;27286;47.870;19.006;2022-09-09T15:28:24;0.40;;;0.10;;
41572;SDS011;27286;47.870;19.006;2022-09-09T15:30:50;0.20;;;0.10;;
41572;SDS011;27286;47.870;19.006;2022-09-09T15:33:17;0.25;;;0.10;;
41572;SDS011;27286;47.870;19.006;2022-09-09T15:35:43;0.43;;;0.17;;
41572;SDS011;27286;47.870;19.006;2022-09-09T15:38:09;1.35;;;0.20;;
41572;SDS011;27286;47.870;19.006;2022-09-09T15:40:34;0.30;;;0.10;;
41572;SDS011;27286;47.870;19.006;2022-09-09T15:43:00;0.30;;;0.10;;
41572;SDS011;27286;47.870;19.006;2022-09-09T15:45:26;0.80;;;0.10;;
41572;SDS011;27286;47.870;19.006;2022-09-09T15:47:52;0.20;;;0.17;;
41572;SDS011;27286;47.870;19.006;2022-09-09T15:50:17;0.40;;;0.10;;
41572;SDS011;27286;47.870;19.006;2022-09-09T15:52:43;0.43;;;0.10;;
41572;SDS011;27286;47.870;19.006;2022-09-09T15:55:09;0.32;;;0.20;;
41572;SDS011;27286;47.870;19.006;2022-09-09T15:57:34;0.43;;;0.13;;
41572;SDS011;27286;47.870;19.006;2022-09-09T16:00:01;0.47;;;0.17;;
41572;SDS011;27286;47.870;19.006;2022-09-09T16:02:28;0.28;;;0.17;;
41572;SDS011;27286;47.870;19.006;2022-09-09T16:04:55;0.45;;;0.15;;
41572;SDS011;27286;47.870;19.006;2022-09-09T16:07:22;1.17;;;0.30;;
41572;SDS011;27286;47.870;19.006;2022-09-09T16:09:48;2.00;;;0.40;;
41572;SDS011;27286;47.870;19.006;2022-09-09T16:12:16;0.50;;;0.20;;
41572;SDS011;27286;47.870;19.006;2022-09-09T16:14:42;0.52;;;0.20;;
41572;SDS011;27286;47.870;19.006;2022-09-09T16:17:07;0.60;;;0.10;;
41572;SDS011;27286;47.870;19.006;2022-09-09T16:19:33;1.15;;;0.30;;
41572;SDS011;27286;47.870;19.006;2022-09-09T16:22:00;4.03;;;0.40;;
41572;SDS011;27286;47.870;19.006;2022-09-09T16:24:26;14.45;;;1.85;;
41572;SDS011;27286;47.870;19.006;2022-09-09T16:26:53;12.18;;;1.90;;
41572;SDS011;27286;47.870;19.006;2022-09-09T16:29:19;9.00;;;0.93;;
41572;SDS011;27286;47.870;19.006;2022-09-09T16:31:47;4.82;;;0.50;;
41572;SDS011;27286;47.870;19.006;2022-09-09T16:34:13;5.00;;;0.30;;
41572;SDS011;27286;47.870;19.006;2022-09-09T16:36:40;3.30;;;0.30;;
41572;SDS011;27286;47.870;19.006;2022-09-09T16:39:07;2.25;;;0.43;;
41572;SDS011;27286;47.870;19.006;2022-09-09T16:41:35;3.53;;;0.20;;
41572;SDS011;27286;47.870;19.006;2022-09-09T16:44:02;1.02;;;0.15;;
41572;SDS011;27286;47.870;19.006;2022-09-09T16:46:30;1.05;;;0.10;;
41572;SDS011;27286;47.870;19.006;2022-09-09T16:48:59;1.20;;;0.10;;
41572;SDS011;27286;47.870;19.006;2022-09-09T16:51:26;1.27;;;0.10;;
41572;SDS011;27286;47.870;19.006;2022-09-09T16:53:54;0.80;;;0.10;;
41572;SDS011;27286;47.870;19.006;2022-09-09T16:56:22;0.70;;;0.20;;
41572;SDS011;27286;47.870;19.006;2022-09-09T16:58:53;0.13;;;0.08;;
41572;SDS011;27286;47.870;19.006;2022-09-09T17:01:21;0.30;;;0.10;;
41572;SDS011;27286;47.870;19.006;2022-09-09T17:03:52;1.95;;;0.20;;
41572;SDS011;27286;47.870;19.006;2022-09-09T17:06:20;1.98;;;0.10;;
41572;SDS011;27286;47.870;19.006;2022-09-09T17:08:46;0.10;;;0.00;;
41572;SDS011;27286;47.870;19.006;2022-09-09T17:11:14;0.43;;;0.10;;
41572;SDS011;27286;47.870;19.006;2022-09-09T17:13:44;0.30;;;0.20;;
41572;SDS011;27286;47.870;19.006;2022-09-09T17:16:12;0.30;;;0.10;;
41572;SDS011;27286;47.870;19.006;2022-09-09T17:18:40;1.00;;;0.45;;
41572;SDS011;27286;47.870;19.006;2022-09-09T17:21:06;1.60;;;0.20;;
41572;SDS011;27286;47.870;19.006;2022-09-09T17:23:34;2.58;;;0.40;;
41572;SDS011;27286;47.870;19.006;2022-09-09T17:26:03;1.63;;;0.50;;
41572;SDS011;27286;47.870;19.006;2022-09-09T17:28:38;0.70;;;0.35;;
41572;SDS011;27286;47.870;19.006;2022-09-09T17:31:05;0.30;;;0.10;;
41572;SDS011;27286;47.870;19.006;2022-09-09T17:33:33;0.30;;;0.20;;
41572;SDS011;27286;47.870;19.006;2022-09-09T17:36:00;2.47;;;0.20;;
41572;SDS011;27286;47.870;19.006;2022-09-09T17:38:31;2.25;;;0.20;;
41572;SDS011;27286;47.870;19.006;2022-09-09T17:41:03;1.48;;;0.20;;
41572;SDS011;27286;47.870;19.006;2022-09-09T17:43:32;0.70;;;0.20;;
41572;SDS011;27286;47.870;19.006;2022-09-09T17:46:17;0.90;;;0.20;;
41572;SDS011;27286;47.870;19.006;2022-09-09T17:48:46;0.57;;;0.20;;
41572;SDS011;27286;47.870;19.006;2022-09-09T17:51:13;3.03;;;0.20;;
41572;SDS011;27286;47.870;19.006;2022-09-09T17:53:44;0.20;;;0.20;;
41572;SDS011;27286;47.870;19.006;2022-09-09T17:56:15;1.10;;;0.30;;
41572;SDS011;27286;47.870;19.006;2022-09-09T17:58:45;0.35;;;0.10;;
41572;SDS011;27286;47.870;19.006;2022-09-09T18:01:12;3.33;;;0.30;;